Holt, Missouri
Current Conditions -  °F | °C
As of 4:55 PM on Wednesday 22 Oct 2014 (Local Time) from KGPH Reporting Station
Clear Clear  
Wind Chill: 72°   Ceiling: Unl
Heat Index: 72°   Visibility: 10mi
Dew Point: 50°   Wind: 8mph
Humidity: 46%   Direction: 140°SE
Pressure: 30.11"   Gusts: NA
Location:  39.45°N, 94.34°W
Report Text: KGPH 222155Z AUTO 14007KT 10SM CLR 22/10 A3011 RMK AO2
Loading
Personal Weather Stations






























Interactive Weather Map
Tropical Storm Tracking
New forecast layout! Learn more

10-Day Weather Forecast

Advertisements
Track Severe Weather on mobile